sensor_id;sensor_type;location;lat;lon;timestamp;temperature;humidity
14397;DHT22;50653;47.810;13.022;2022-12-18T00:00:43;-4.40;99.90
14397;DHT22;50653;47.810;13.022;2022-12-18T00:03:09;-4.50;99.90
14397;DHT22;50653;47.810;13.022;2022-12-18T00:05:35;-4.60;99.90
14397;DHT22;50653;47.810;13.022;2022-12-18T00:08:01;-4.80;99.90
14397;DHT22;50653;47.810;13.022;2022-12-18T00:10:28;-5.00;99.90
14397;DHT22;50653;47.810;13.022;2022-12-18T00:12:54;-5.00;99.90
14397;DHT22;50653;47.810;13.022;2022-12-18T00:15:19;-5.10;99.90
14397;DHT22;50653;47.810;13.022;2022-12-18T00:17:45;-5.00;99.90
14397;DHT22;50653;47.810;13.022;2022-12-18T00:20:11;-4.90;99.90
14397;DHT22;50653;47.810;13.022;2022-12-18T00:22:37;-5.10;99.90
14397;DHT22;50653;47.810;13.022;2022-12-18T00:25:02;-5.10;99.90
14397;DHT22;50653;47.810;13.022;2022-12-18T00:27:28;-5.30;99.90
14397;DHT22;50653;47.810;13.022;2022-12-18T00:29:54;-5.20;99.90
14397;DHT22;50653;47.810;13.022;2022-12-18T00:32:19;-5.20;99.90
14397;DHT22;50653;47.810;13.022;2022-12-18T00:34:45;-5.30;99.90
14397;DHT22;50653;47.810;13.022;2022-12-18T00:37:11;-5.30;99.90
14397;DHT22;50653;47.810;13.022;2022-12-18T00:39:36;-5.40;99.90
14397;DHT22;50653;47.810;13.022;2022-12-18T00:42:02;-5.30;99.90
14397;DHT22;50653;47.810;13.022;2022-12-18T00:44:47;-5.30;99.90
14397;DHT22;50653;47.810;13.022;2022-12-18T00:47:12;-5.30;99.90
14397;DHT22;50653;47.810;13.022;2022-12-18T00:49:38;-5.20;99.90
14397;DHT22;50653;47.810;13.022;2022-12-18T00:52:04;-5.10;99.90
14397;DHT22;50653;47.810;13.022;2022-12-18T00:54:29;-5.00;99.90
14397;DHT22;50653;47.810;13.022;2022-12-18T00:56:55;-5.10;99.90
14397;DHT22;50653;47.810;13.022;2022-12-18T00:59:21;-5.00;99.90
14397;DHT22;50653;47.810;13.022;2022-12-18T01:01:47;-5.20;99.90
14397;DHT22;50653;47.810;13.022;2022-12-18T01:04:13;-5.10;99.90
14397;DHT22;50653;47.810;13.022;2022-12-18T01:06:38;-5.10;99.90
14397;DHT22;50653;47.810;13.022;2022-12-18T01:09:04;-5.20;99.90
14397;DHT22;50653;47.810;13.022;2022-12-18T01:11:30;-5.40;99.90
14397;DHT22;50653;47.810;13.022;2022-12-18T01:13:56;-5.30;99.90
14397;DHT22;50653;47.810;13.022;2022-12-18T01:16:22;-5.30;99.90
14397;DHT22;50653;47.810;13.022;2022-12-18T01:18:51;-5.30;99.90
14397;DHT22;50653;47.810;13.022;2022-12-18T01:21:18;-5.30;99.90
14397;DHT22;50653;47.810;13.022;2022-12-18T01:23:44;-5.30;99.90
14397;DHT22;50653;47.810;13.022;2022-12-18T01:26:15;-5.10;99.90
14397;DHT22;50653;47.810;13.022;2022-12-18T01:28:41;-5.30;99.90
14397;DHT22;50653;47.810;13.022;2022-12-18T01:31:13;-5.40;99.90
14397;DHT22;50653;47.810;13.022;2022-12-18T01:33:39;-5.40;99.90
14397;DHT22;50653;47.810;13.022;2022-12-18T01:36:05;-5.40;99.90
14397;DHT22;50653;47.810;13.022;2022-12-18T01:38:31;-5.50;99.90
14397;DHT22;50653;47.810;13.022;2022-12-18T01:40:59;-5.50;99.90
14397;DHT22;50653;47.810;13.022;2022-12-18T01:43:43;-5.50;99.90
14397;DHT22;50653;47.810;13.022;2022-12-18T01:46:09;-5.60;99.90
14397;DHT22;50653;47.810;13.022;2022-12-18T01:48:34;-5.60;99.90
14397;DHT22;50653;47.810;13.022;2022-12-18T01:51:01;-5.50;99.90
14397;DHT22;50653;47.810;13.022;2022-12-18T01:53:27;-5.50;99.90
14397;DHT22;50653;47.810;13.022;2022-12-18T01:55:55;-5.60;99.90
14397;DHT22;50653;47.810;13.022;2022-12-18T01:58:28;-5.70;99.90
14397;DHT22;50653;47.810;13.022;2022-12-18T02:00:55;-5.60;99.90
14397;DHT22;50653;47.810;13.022;2022-12-18T02:03:21;-5.60;99.90
14397;DHT22;50653;47.810;13.022;2022-12-18T02:05:52;-5.40;99.90
14397;DHT22;50653;47.810;13.022;2022-12-18T02:11:26;-5.70;99.90
14397;DHT22;50653;47.810;13.022;2022-12-18T02:14:17;-5.70;99.90
14397;DHT22;50653;47.810;13.022;2022-12-18T02:17:04;-5.80;99.90
14397;DHT22;50653;47.810;13.022;2022-12-18T02:19:57;-5.70;99.90
14397;DHT22;50653;47.810;13.022;2022-12-18T02:22:40;-5.90;99.90
14397;DHT22;50653;47.810;13.022;2022-12-18T02:25:29;-5.90;99.90
14397;DHT22;50653;47.810;13.022;2022-12-18T02:28:00;-5.90;99.90
14397;DHT22;50653;47.810;13.022;2022-12-18T02:30:30;-5.70;99.90
14397;DHT22;50653;47.810;13.022;2022-12-18T02:32:57;-5.80;99.90
14397;DHT22;50653;47.810;13.022;2022-12-18T02:35:27;-5.90;99.90
14397;DHT22;50653;47.810;13.022;2022-12-18T02:37:57;-6.00;99.90
14397;DHT22;50653;47.810;13.022;2022-12-18T02:40:27;-6.00;99.90
14397;DHT22;50653;47.810;13.022;2022-12-18T02:42:54;-6.10;99.90
14397;DHT22;50653;47.810;13.022;2022-12-18T02:45:20;-6.20;99.90
14397;DHT22;50653;47.810;13.022;2022-12-18T02:47:48;-6.10;99.90
14397;DHT22;50653;47.810;13.022;2022-12-18T02:50:25;-6.10;99.90
14397;DHT22;50653;47.810;13.022;2022-12-18T02:58:41;-6.10;99.90
14397;DHT22;50653;47.810;13.022;2022-12-18T03:01:24;-6.10;99.90
14397;DHT22;50653;47.810;13.022;2022-12-18T03:04:01;-5.80;99.90
14397;DHT22;50653;47.810;13.022;2022-12-18T03:06:32;-5.60;99.90
14397;DHT22;50653;47.810;13.022;2022-12-18T03:09:07;-5.90;99.90
14397;DHT22;50653;47.810;13.022;2022-12-18T03:11:38;-5.90;99.90
14397;DHT22;50653;47.810;13.022;2022-12-18T03:14:24;-5.80;99.90
14397;DHT22;50653;47.810;13.022;2022-12-18T03:16:54;-5.90;99.90
14397;DHT22;50653;47.810;13.022;2022-12-18T03:19:23;-6.00;99.90
14397;DHT22;50653;47.810;13.022;2022-12-18T03:21:54;-6.10;99.90
14397;DHT22;50653;47.810;13.022;2022-12-18T03:24:24;-6.30;99.90
14397;DHT22;50653;47.810;13.022;2022-12-18T03:26:58;-6.30;99.90
14397;DHT22;50653;47.810;13.022;2022-12-18T03:29:46;-6.30;99.90
14397;DHT22;50653;47.810;13.022;2022-12-18T03:32:24;-6.20;99.90
14397;DHT22;50653;47.810;13.022;2022-12-18T03:34:53;-6.10;99.90
14397;DHT22;50653;47.810;13.022;2022-12-18T03:37:22;-6.00;99.90
14397;DHT22;50653;47.810;13.022;2022-12-18T03:39:48;-6.20;99.90
14397;DHT22;50653;47.810;13.022;2022-12-18T03:45:27;-6.40;99.90
14397;DHT22;50653;47.810;13.022;2022-12-18T03:51:10;-6.30;99.90
14397;DHT22;50653;47.810;13.022;2022-12-18T03:54:00;-6.30;99.90
14397;DHT22;50653;47.810;13.022;2022-12-18T03:56:37;-6.40;99.90
14397;DHT22;50653;47.810;13.022;2022-12-18T03:59:12;-6.40;99.90
14397;DHT22;50653;47.810;13.022;2022-12-18T04:01:46;-6.40;99.90
14397;DHT22;50653;47.810;13.022;2022-12-18T04:04:15;-6.40;99.90
14397;DHT22;50653;47.810;13.022;2022-12-18T04:06:43;-6.50;99.90
14397;DHT22;50653;47.810;13.022;2022-12-18T04:09:12;-6.60;99.90
14397;DHT22;50653;47.810;13.022;2022-12-18T04:11:45;-7.00;99.90
14397;DHT22;50653;47.810;13.022;2022-12-18T04:14:14;-6.90;99.90
14397;DHT22;50653;47.810;13.022;2022-12-18T04:16:39;-6.80;99.90
14397;DHT22;50653;47.810;13.022;2022-12-18T04:19:09;-6.60;99.90
14397;DHT22;50653;47.810;13.022;2022-12-18T04:21:38;-6.80;99.90
14397;DHT22;50653;47.810;13.022;2022-12-18T04:24:05;-6.90;99.90
14397;DHT22;50653;47.810;13.022;2022-12-18T04:26:32;-6.90;99.90
14397;DHT22;50653;47.810;13.022;2022-12-18T04:29:16;-6.60;99.90
14397;DHT22;50653;47.810;13.022;2022-12-18T04:31:42;-6.80;99.90
14397;DHT22;50653;47.810;13.022;2022-12-18T04:34:08;-6.80;99.90
14397;DHT22;50653;47.810;13.022;2022-12-18T04:36:40;-6.90;99.90
14397;DHT22;50653;47.810;13.022;2022-12-18T04:39:06;-7.10;99.90
14397;DHT22;50653;47.810;13.022;2022-12-18T04:41:32;-7.20;99.90
14397;DHT22;50653;47.810;13.022;2022-12-18T04:43:58;-7.20;99.90
14397;DHT22;50653;47.810;13.022;2022-12-18T04:46:24;-7.10;99.90
14397;DHT22;50653;47.810;13.022;2022-12-18T04:48:49;-7.10;99.90
14397;DHT22;50653;47.810;13.022;2022-12-18T04:51:15;-7.00;99.90
14397;DHT22;50653;47.810;13.022;2022-12-18T04:53:41;-6.90;99.90
14397;DHT22;50653;47.810;13.022;2022-12-18T04:56:12;-7.00;99.90
14397;DHT22;50653;47.810;13.022;2022-12-18T04:58:39;-6.90;99.90
14397;DHT22;50653;47.810;13.022;2022-12-18T05:01:06;-6.90;99.90
14397;DHT22;50653;47.810;13.022;2022-12-18T05:03:34;-7.00;99.90
14397;DHT22;50653;47.810;13.022;2022-12-18T05:06:00;-7.10;99.90
14397;DHT22;50653;47.810;13.022;2022-12-18T05:08:26;-7.10;99.90
14397;DHT22;50653;47.810;13.022;2022-12-18T05:11:07;-6.90;99.90
14397;DHT22;50653;47.810;13.022;2022-12-18T05:13:34;-7.00;99.90
14397;DHT22;50653;47.810;13.022;2022-12-18T05:16:01;-6.70;99.90
14397;DHT22;50653;47.810;13.022;2022-12-18T05:18:27;-6.90;99.90
14397;DHT22;50653;47.810;13.022;2022-12-18T05:20:53;-6.80;99.90
14397;DHT22;50653;47.810;13.022;2022-12-18T05:23:19;-7.00;99.90
14397;DHT22;50653;47.810;13.022;2022-12-18T05:26:03;-6.90;99.90
14397;DHT22;50653;47.810;13.022;2022-12-18T05:28:30;-7.00;99.90
14397;DHT22;50653;47.810;13.022;2022-12-18T05:31:00;-7.10;99.90
14397;DHT22;50653;47.810;13.022;2022-12-18T05:33:29;-7.20;99.90
14397;DHT22;50653;47.810;13.022;2022-12-18T05:36:00;-7.20;99.90
14397;DHT22;50653;47.810;13.022;2022-12-18T05:38:28;-7.20;99.90
14397;DHT22;50653;47.810;13.022;2022-12-18T05:40:54;-7.20;99.90
14397;DHT22;50653;47.810;13.022;2022-12-18T05:43:21;-7.20;99.90
14397;DHT22;50653;47.810;13.022;2022-12-18T05:45:47;-7.30;99.90
14397;DHT22;50653;47.810;13.022;2022-12-18T05:48:13;-7.40;99.90
14397;DHT22;50653;47.810;13.022;2022-12-18T05:50:41;-7.40;99.90
14397;DHT22;50653;47.810;13.022;2022-12-18T05:53:07;-7.40;99.90
14397;DHT22;50653;47.810;13.022;2022-12-18T05:55:38;-7.40;99.90
14397;DHT22;50653;47.810;13.022;2022-12-18T05:58:05;-7.30;99.90
14397;DHT22;50653;47.810;13.022;2022-12-18T06:00:32;-7.40;99.90
14397;DHT22;50653;47.810;13.022;2022-12-18T06:02:58;-7.20;99.90
14397;DHT22;50653;47.810;13.022;2022-12-18T06:05:25;-7.30;99.90
14397;DHT22;50653;47.810;13.022;2022-12-18T06:07:50;-7.20;99.90
14397;DHT22;50653;47.810;13.022;2022-12-18T06:10:16;-7.30;99.90
14397;DHT22;50653;47.810;13.022;2022-12-18T06:12:42;-7.60;99.90
14397;DHT22;50653;47.810;13.022;2022-12-18T06:15:08;-7.50;99.90
14397;DHT22;50653;47.810;13.022;2022-12-18T06:17:34;-7.60;99.90
14397;DHT22;50653;47.810;13.022;2022-12-18T06:20:00;-7.70;99.90
14397;DHT22;50653;47.810;13.022;2022-12-18T06:22:26;-7.50;99.90
14397;DHT22;50653;47.810;13.022;2022-12-18T06:24:52;-7.60;99.90
14397;DHT22;50653;47.810;13.022;2022-12-18T06:27:18;-7.90;99.90
14397;DHT22;50653;47.810;13.022;2022-12-18T06:29:44;-7.80;99.90
14397;DHT22;50653;47.810;13.022;2022-12-18T06:32:09;-7.90;99.90
14397;DHT22;50653;47.810;13.022;2022-12-18T06:34:37;-7.90;99.90
14397;DHT22;50653;47.810;13.022;2022-12-18T06:37:03;-7.50;99.90
14397;DHT22;50653;47.810;13.022;2022-12-18T06:39:29;-7.40;99.90
14397;DHT22;50653;47.810;13.022;2022-12-18T06:41:55;-7.50;99.90
14397;DHT22;50653;47.810;13.022;2022-12-18T06:44:21;-7.50;99.90
14397;DHT22;50653;47.810;13.022;2022-12-18T06:46:47;-7.40;99.90
14397;DHT22;50653;47.810;13.022;2022-12-18T06:49:13;-7.40;99.90
14397;DHT22;50653;47.810;13.022;2022-12-18T06:51:38;-7.40;99.90
14397;DHT22;50653;47.810;13.022;2022-12-18T06:54:04;-7.40;99.90
14397;DHT22;50653;47.810;13.022;2022-12-18T06:56:30;-7.50;99.90
14397;DHT22;50653;47.810;13.022;2022-12-18T06:58:56;-7.50;99.90
14397;DHT22;50653;47.810;13.022;2022-12-18T07:01:21;-7.30;99.90
14397;DHT22;50653;47.810;13.022;2022-12-18T07:03:52;-7.30;99.90
14397;DHT22;50653;47.810;13.022;2022-12-18T07:06:20;-7.20;99.90
14397;DHT22;50653;47.810;13.022;2022-12-18T07:08:46;-7.40;99.90
14397;DHT22;50653;47.810;13.022;2022-12-18T07:11:12;-7.30;99.90
14397;DHT22;50653;47.810;13.022;2022-12-18T07:13:38;-7.50;99.90
14397;DHT22;50653;47.810;13.022;2022-12-18T07:16:22;-7.30;99.90
14397;DHT22;50653;47.810;13.022;2022-12-18T07:18:48;-7.40;99.90
14397;DHT22;50653;47.810;13.022;2022-12-18T07:21:16;-7.30;99.90
14397;DHT22;50653;47.810;13.022;2022-12-18T07:23:42;-7.30;99.90
14397;DHT22;50653;47.810;13.022;2022-12-18T07:26:11;-7.20;99.90
14397;DHT22;50653;47.810;13.022;2022-12-18T07:28:38;-7.30;99.90
14397;DHT22;50653;47.810;13.022;2022-12-18T07:31:11;-7.20;99.90
14397;DHT22;50653;47.810;13.022;2022-12-18T07:33:38;-7.30;99.90
14397;DHT22;50653;47.810;13.022;2022-12-18T07:36:06;-7.30;99.90
14397;DHT22;50653;47.810;13.022;2022-12-18T07:38:33;-7.30;99.90
14397;DHT22;50653;47.810;13.022;2022-12-18T07:41:09;-7.30;99.90
14397;DHT22;50653;47.810;13.022;2022-12-18T07:43:35;-7.50;99.90
14397;DHT22;50653;47.810;13.022;2022-12-18T07:46:02;-7.30;99.90
14397;DHT22;50653;47.810;13.022;2022-12-18T07:48:28;-7.20;99.90
14397;DHT22;50653;47.810;13.022;2022-12-18T07:50:58;-7.20;99.90
14397;DHT22;50653;47.810;13.022;2022-12-18T07:53:24;-7.10;99.90
14397;DHT22;50653;47.810;13.022;2022-12-18T07:55:57;-7.10;99.90
14397;DHT22;50653;47.810;13.022;2022-12-18T07:58:23;-7.20;99.90
14397;DHT22;50653;47.810;13.022;2022-12-18T08:00:49;-7.10;99.90
14397;DHT22;50653;47.810;13.022;2022-12-18T08:03:15;-7.30;99.90
14397;DHT22;50653;47.810;13.022;2022-12-18T08:05:40;-7.30;99.90
14397;DHT22;50653;47.810;13.022;2022-12-18T08:08:06;-7.10;99.90
14397;DHT22;50653;47.810;13.022;2022-12-18T08:10:32;-6.90;99.90
14397;DHT22;50653;47.810;13.022;2022-12-18T08:12:57;-6.90;99.90
14397;DHT22;50653;47.810;13.022;2022-12-18T08:15:23;-7.00;99.90
14397;DHT22;50653;47.810;13.022;2022-12-18T08:17:48;-7.00;99.90
14397;DHT22;50653;47.810;13.022;2022-12-18T08:20:14;-7.00;99.90
14397;DHT22;50653;47.810;13.022;2022-12-18T08:22:41;-6.70;99.90
14397;DHT22;50653;47.810;13.022;2022-12-18T08:25:08;-6.70;99.90
14397;DHT22;50653;47.810;13.022;2022-12-18T08:27:33;-6.70;99.90
14397;DHT22;50653;47.810;13.022;2022-12-18T08:29:59;-6.70;99.90
14397;DHT22;50653;47.810;13.022;2022-12-18T08:32:26;-6.70;99.90
14397;DHT22;50653;47.810;13.022;2022-12-18T08:34:51;-6.60;99.90
14397;DHT22;50653;47.810;13.022;2022-12-18T08:37:17;-6.70;99.90
14397;DHT22;50653;47.810;13.022;2022-12-18T08:39:43;-6.70;99.90
14397;DHT22;50653;47.810;13.022;2022-12-18T08:42:09;-6.70;99.90
14397;DHT22;50653;47.810;13.022;2022-12-18T08:44:53;-6.70;99.90
14397;DHT22;50653;47.810;13.022;2022-12-18T08:47:18;-6.70;99.90
14397;DHT22;50653;47.810;13.022;2022-12-18T08:49:44;-6.80;99.90
14397;DHT22;50653;47.810;13.022;2022-12-18T08:52:09;-6.80;99.90
14397;DHT22;50653;47.810;13.022;2022-12-18T08:54:36;-6.90;99.90
14397;DHT22;50653;47.810;13.022;2022-12-18T08:57:02;-7.00;99.90
14397;DHT22;50653;47.810;13.022;2022-12-18T08:59:27;-6.80;99.90
14397;DHT22;50653;47.810;13.022;2022-12-18T09:01:54;-6.70;99.90
14397;DHT22;50653;47.810;13.022;2022-12-18T09:04:20;-6.70;99.90
14397;DHT22;50653;47.810;13.022;2022-12-18T09:06:46;-6.60;99.90
14397;DHT22;50653;47.810;13.022;2022-12-18T09:09:12;-6.60;99.90
14397;DHT22;50653;47.810;13.022;2022-12-18T09:11:37;-6.90;99.90
14397;DHT22;50653;47.810;13.022;2022-12-18T09:14:03;-6.80;99.90
14397;DHT22;50653;47.810;13.022;2022-12-18T09:16:29;-6.70;99.90
14397;DHT22;50653;47.810;13.022;2022-12-18T09:18:55;-6.60;99.90
14397;DHT22;50653;47.810;13.022;2022-12-18T09:21:25;-6.50;99.90
14397;DHT22;50653;47.810;13.022;2022-12-18T09:23:52;-6.50;99.90
14397;DHT22;50653;47.810;13.022;2022-12-18T09:26:18;-6.40;99.90
14397;DHT22;50653;47.810;13.022;2022-12-18T09:28:44;-6.40;99.90
14397;DHT22;50653;47.810;13.022;2022-12-18T09:31:15;-6.30;99.90
14397;DHT22;50653;47.810;13.022;2022-12-18T09:33:41;-6.30;99.90
14397;DHT22;50653;47.810;13.022;2022-12-18T09:36:08;-6.10;99.90
14397;DHT22;50653;47.810;13.022;2022-12-18T09:38:35;-6.10;99.90
14397;DHT22;50653;47.810;13.022;2022-12-18T09:44:41;-5.80;99.90
14397;DHT22;50653;47.810;13.022;2022-12-18T09:49:39;-5.80;99.90
14397;DHT22;50653;47.810;13.022;2022-12-18T09:52:42;-5.80;99.90
14397;DHT22;50653;47.810;13.022;2022-12-18T09:55:24;-5.90;99.90
14397;DHT22;50653;47.810;13.022;2022-12-18T09:58:02;-6.00;99.90
14397;DHT22;50653;47.810;13.022;2022-12-18T10:00:31;-5.80;99.90
14397;DHT22;50653;47.810;13.022;2022-12-18T10:03:02;-5.60;99.90
14397;DHT22;50653;47.810;13.022;2022-12-18T10:06:07;-5.60;99.90
14397;DHT22;50653;47.810;13.022;2022-12-18T10:11:43;-5.60;99.90
14397;DHT22;50653;47.810;13.022;2022-12-18T10:14:34;-5.40;99.90
14397;DHT22;50653;47.810;13.022;2022-12-18T10:17:10;-5.40;99.90
14397;DHT22;50653;47.810;13.022;2022-12-18T10:19:51;-5.30;99.90
14397;DHT22;50653;47.810;13.022;2022-12-18T10:22:38;-5.20;99.90
14397;DHT22;50653;47.810;13.022;2022-12-18T10:25:20;-5.10;99.90
14397;DHT22;50653;47.810;13.022;2022-12-18T10:27:48;-5.00;99.90
14397;DHT22;50653;47.810;13.022;2022-12-18T10:30:18;-4.90;99.90
14397;DHT22;50653;47.810;13.022;2022-12-18T10:32:45;-4.80;99.90
14397;DHT22;50653;47.810;13.022;2022-12-18T10:35:20;-4.60;99.90
14397;DHT22;50653;47.810;13.022;2022-12-18T10:38:03;-4.60;99.90
14397;DHT22;50653;47.810;13.022;2022-12-18T10:40:29;-4.80;99.90
14397;DHT22;50653;47.810;13.022;2022-12-18T10:43:12;-4.60;99.90
14397;DHT22;50653;47.810;13.022;2022-12-18T10:45:38;-4.60;99.90
14397;DHT22;50653;47.810;13.022;2022-12-18T10:48:05;-4.50;99.90
14397;DHT22;50653;47.810;13.022;2022-12-18T10:50:47;-4.50;99.90
14397;DHT22;50653;47.810;13.022;2022-12-18T10:53:20;-4.50;99.90
14397;DHT22;50653;47.810;13.022;2022-12-18T10:55:47;-4.40;99.90
14397;DHT22;50653;47.810;13.022;2022-12-18T10:58:22;-4.50;99.90
14397;DHT22;50653;47.810;13.022;2022-12-18T11:03:41;-4.50;99.90
14397;DHT22;50653;47.810;13.022;2022-12-18T11:06:10;-4.40;99.90
14397;DHT22;50653;47.810;13.022;2022-12-18T11:08:36;-4.30;99.90
14397;DHT22;50653;47.810;13.022;2022-12-18T11:11:03;-4.20;99.90
14397;DHT22;50653;47.810;13.022;2022-12-18T11:13:30;-4.10;99.90
14397;DHT22;50653;47.810;13.022;2022-12-18T11:15:57;-4.20;99.90
14397;DHT22;50653;47.810;13.022;2022-12-18T11:18:27;-4.20;99.90
14397;DHT22;50653;47.810;13.022;2022-12-18T11:20:59;-4.40;99.90
14397;DHT22;50653;47.810;13.022;2022-12-18T11:23:27;-4.40;99.90
14397;DHT22;50653;47.810;13.022;2022-12-18T11:25:58;-4.30;99.90
14397;DHT22;50653;47.810;13.022;2022-12-18T11:28:36;-4.20;99.90
14397;DHT22;50653;47.810;13.022;2022-12-18T11:33:44;-4.30;99.90
14397;DHT22;50653;47.810;13.022;2022-12-18T11:36:12;-4.20;99.90
14397;DHT22;50653;47.810;13.022;2022-12-18T11:38:40;-4.10;99.90
14397;DHT22;50653;47.810;13.022;2022-12-18T11:41:33;-4.00;99.90
14397;DHT22;50653;47.810;13.022;2022-12-18T11:44:25;-3.90;99.90
14397;DHT22;50653;47.810;13.022;2022-12-18T11:46:59;-3.90;99.90
14397;DHT22;50653;47.810;13.022;2022-12-18T11:49:30;-3.80;99.90
14397;DHT22;50653;47.810;13.022;2022-12-18T11:54:30;-3.60;99.90
14397;DHT22;50653;47.810;13.022;2022-12-18T11:57:02;-3.60;99.90
14397;DHT22;50653;47.810;13.022;2022-12-18T12:06:05;-3.60;99.90
14397;DHT22;50653;47.810;13.022;2022-12-18T12:16:55;-3.60;99.90
14397;DHT22;50653;47.810;13.022;2022-12-18T12:22:24;-3.50;99.90
14397;DHT22;50653;47.810;13.022;2022-12-18T12:25:05;-3.50;99.90
14397;DHT22;50653;47.810;13.022;2022-12-18T12:27:45;-3.40;99.90
14397;DHT22;50653;47.810;13.022;2022-12-18T12:30:19;-3.50;99.90
14397;DHT22;50653;47.810;13.022;2022-12-18T12:35:54;-3.50;99.90
14397;DHT22;50653;47.810;13.022;2022-12-18T12:38:27;-3.40;99.90
14397;DHT22;50653;47.810;13.022;2022-12-18T12:41:05;-3.40;99.90
14397;DHT22;50653;47.810;13.022;2022-12-18T12:43:44;-3.30;99.90
14397;DHT22;50653;47.810;13.022;2022-12-18T12:46:15;-3.30;99.90
14397;DHT22;50653;47.810;13.022;2022-12-18T12:48:48;-3.20;99.90
14397;DHT22;50653;47.810;13.022;2022-12-18T12:51:24;-3.10;99.90
14397;DHT22;50653;47.810;13.022;2022-12-18T12:53:50;-3.20;99.90
14397;DHT22;50653;47.810;13.022;2022-12-18T12:56:19;-3.10;99.90
14397;DHT22;50653;47.810;13.022;2022-12-18T13:04:48;-3.30;99.90
14397;DHT22;50653;47.810;13.022;2022-12-18T13:12:58;-3.00;99.90
14397;DHT22;50653;47.810;13.022;2022-12-18T13:16:03;-2.90;99.90
14397;DHT22;50653;47.810;13.022;2022-12-18T13:18:29;-2.80;99.90
14397;DHT22;50653;47.810;13.022;2022-12-18T13:23:27;-3.10;99.90
14397;DHT22;50653;47.810;13.022;2022-12-18T13:25:58;-3.00;99.90
14397;DHT22;50653;47.810;13.022;2022-12-18T13:31:02;-2.90;99.90
14397;DHT22;50653;47.810;13.022;2022-12-18T13:38:37;-2.70;99.90
14397;DHT22;50653;47.810;13.022;2022-12-18T13:43:46;-3.30;99.90
14397;DHT22;50653;47.810;13.022;2022-12-18T13:51:24;-3.00;99.90
14397;DHT22;50653;47.810;13.022;2022-12-18T13:54:30;-2.90;99.90
14397;DHT22;50653;47.810;13.022;2022-12-18T13:56:48;-2.80;99.90
14397;DHT22;50653;47.810;13.022;2022-12-18T13:59:36;-2.90;99.90
14397;DHT22;50653;47.810;13.022;2022-12-18T14:02:14;-3.10;99.90
14397;DHT22;50653;47.810;13.022;2022-12-18T14:04:40;-2.90;99.90
14397;DHT22;50653;47.810;13.022;2022-12-18T14:07:10;-2.80;99.90
14397;DHT22;50653;47.810;13.022;2022-12-18T14:09:40;-2.70;99.90
14397;DHT22;50653;47.810;13.022;2022-12-18T14:12:06;-2.60;99.90
14397;DHT22;50653;47.810;13.022;2022-12-18T14:14:58;-2.60;99.90
14397;DHT22;50653;47.810;13.022;2022-12-18T14:17:24;-2.60;99.90
14397;DHT22;50653;47.810;13.022;2022-12-18T14:19:50;-2.50;99.90
14397;DHT22;50653;47.810;13.022;2022-12-18T14:22:18;-2.60;99.90
14397;DHT22;50653;47.810;13.022;2022-12-18T14:24:45;-2.70;99.90
14397;DHT22;50653;47.810;13.022;2022-12-18T14:27:23;-2.70;99.90
14397;DHT22;50653;47.810;13.022;2022-12-18T14:29:50;-2.60;99.90
14397;DHT22;50653;47.810;13.022;2022-12-18T14:32:20;-2.80;99.90
14397;DHT22;50653;47.810;13.022;2022-12-18T14:34:51;-2.90;99.90
14397;DHT22;50653;47.810;13.022;2022-12-18T14:37:25;-2.80;99.90
14397;DHT22;50653;47.810;13.022;2022-12-18T14:39:59;-2.90;99.90
14397;DHT22;50653;47.810;13.022;2022-12-18T14:42:28;-2.90;99.90
14397;DHT22;50653;47.810;13.022;2022-12-18T14:47:58;-2.90;99.90
14397;DHT22;50653;47.810;13.022;2022-12-18T14:50:24;-2.80;99.90
14397;DHT22;50653;47.810;13.022;2022-12-18T14:52:50;-2.90;99.90
14397;DHT22;50653;47.810;13.022;2022-12-18T14:55:17;-2.90;99.90
14397;DHT22;50653;47.810;13.022;2022-12-18T14:57:44;-2.90;99.90
14397;DHT22;50653;47.810;13.022;2022-12-18T15:00:21;-2.90;99.90
14397;DHT22;50653;47.810;13.022;2022-12-18T15:02:51;-3.00;99.90
14397;DHT22;50653;47.810;13.022;2022-12-18T15:05:20;-3.00;99.90
14397;DHT22;50653;47.810;13.022;2022-12-18T15:07:51;-3.00;99.90
14397;DHT22;50653;47.810;13.022;2022-12-18T15:10:25;-3.00;99.90
14397;DHT22;50653;47.810;13.022;2022-12-18T15:15:52;-3.10;99.90
14397;DHT22;50653;47.810;13.022;2022-12-18T15:18:20;-3.10;99.90
14397;DHT22;50653;47.810;13.022;2022-12-18T15:20:50;-3.20;99.90
14397;DHT22;50653;47.810;13.022;2022-12-18T15:23:25;-3.20;99.90
14397;DHT22;50653;47.810;13.022;2022-12-18T15:25:59;-3.20;99.90
14397;DHT22;50653;47.810;13.022;2022-12-18T15:28:37;-3.30;99.90
14397;DHT22;50653;47.810;13.022;2022-12-18T15:33:43;-3.40;99.90
14397;DHT22;50653;47.810;13.022;2022-12-18T15:36:15;-3.30;99.90
14397;DHT22;50653;47.810;13.022;2022-12-18T15:38:45;-3.40;99.90
14397;DHT22;50653;47.810;13.022;2022-12-18T15:41:14;-3.40;99.90
14397;DHT22;50653;47.810;13.022;2022-12-18T15:43:40;-3.50;99.90
14397;DHT22;50653;47.810;13.022;2022-12-18T15:46:12;-3.40;99.90
14397;DHT22;50653;47.810;13.022;2022-12-18T15:48:45;-3.50;99.90
14397;DHT22;50653;47.810;13.022;2022-12-18T15:51:18;-3.40;99.90
14397;DHT22;50653;47.810;13.022;2022-12-18T15:53:46;-3.40;99.90
14397;DHT22;50653;47.810;13.022;2022-12-18T15:56:14;-3.40;99.90
14397;DHT22;50653;47.810;13.022;2022-12-18T15:59:00;-3.40;99.90
14397;DHT22;50653;47.810;13.022;2022-12-18T16:01:28;-3.50;99.90
14397;DHT22;50653;47.810;13.022;2022-12-18T16:03:54;-3.50;99.90
14397;DHT22;50653;47.810;13.022;2022-12-18T16:06:21;-3.60;99.90
14397;DHT22;50653;47.810;13.022;2022-12-18T16:08:46;-3.60;99.90
14397;DHT22;50653;47.810;13.022;2022-12-18T16:11:27;-3.50;99.90
14397;DHT22;50653;47.810;13.022;2022-12-18T16:14:29;-3.60;99.90
14397;DHT22;50653;47.810;13.022;2022-12-18T16:17:01;-3.70;99.90
14397;DHT22;50653;47.810;13.022;2022-12-18T16:19:27;-3.70;99.90
14397;DHT22;50653;47.810;13.022;2022-12-18T16:21:55;-3.80;99.90
14397;DHT22;50653;47.810;13.022;2022-12-18T16:24:24;-3.70;99.90
14397;DHT22;50653;47.810;13.022;2022-12-18T16:26:51;-3.60;99.90
14397;DHT22;50653;47.810;13.022;2022-12-18T16:29:17;-3.60;99.90
14397;DHT22;50653;47.810;13.022;2022-12-18T16:31:43;-3.70;99.90
14397;DHT22;50653;47.810;13.022;2022-12-18T16:34:30;-3.80;99.90
14397;DHT22;50653;47.810;13.022;2022-12-18T16:36:58;-3.80;99.90
14397;DHT22;50653;47.810;13.022;2022-12-18T16:39:25;-3.90;99.90
14397;DHT22;50653;47.810;13.022;2022-12-18T16:41:51;-3.80;99.90
14397;DHT22;50653;47.810;13.022;2022-12-18T16:44:17;-3.80;99.90
14397;DHT22;50653;47.810;13.022;2022-12-18T16:46:44;-3.70;99.90
14397;DHT22;50653;47.810;13.022;2022-12-18T16:49:17;-3.80;99.90
14397;DHT22;50653;47.810;13.022;2022-12-18T16:51:45;-3.70;99.90
14397;DHT22;50653;47.810;13.022;2022-12-18T16:54:11;-3.80;99.90
14397;DHT22;50653;47.810;13.022;2022-12-18T16:56:37;-3.90;99.90
14397;DHT22;50653;47.810;13.022;2022-12-18T16:59:04;-3.80;99.90
14397;DHT22;50653;47.810;13.022;2022-12-18T17:01:31;-3.90;99.90
14397;DHT22;50653;47.810;13.022;2022-12-18T17:04:02;-3.90;99.90